Whitinsville, MA (01588)

8:33 PM EDT on August 27, 2014 (GMT -0400)
McQuades Lane | Change Station
CLOSE
Current Station
Personal Weather Station
Location: Northbridge, MA
Elevation: 330 ft
Nearby Weather Stations

Elev 330 ft 42.16 °N, 71.66 °W | Updated 4 seconds ago

Overcast
Overcast
73.2 °F
Feels Like 72 °F
N
0.0
Wind Variable Wind from SE
Gusts 2.2 mph

Today
High -- | Low -- °F
--% Chance of Precip.
Yesterday
High -- | Low -- °F
Precip. -- in
6:06 AM 7:28 PM
Waxing Crescent, 5% visible
Pressure 29.94 in
Visibility 10.0 miles
Clouds Scattered Clouds 4300 ft
Mostly Cloudy 6500 ft
Mostly Cloudy 9000 ft
Heat Index 72 °F
Dew Point 70 °F
Humidity 88%
Rainfall 0.00 in
Snow Depth Not available.
UV 0.0 out of 12
Pollen 9.90 out of 12
Ozone Good
PM2.5 Moderate
Flu Activity Not available.
SPECI KORH 280007Z 27006KT 10SM -TSRA SCT043 BKN065 BKN090 21/20 A2994 RMK AO2 LTG DSNT SW TSB01 P0000 T02060200

More Conditions Fewer Conditions

Pressure 29.94 in
Visibility 10.0 miles
Clouds Scattered Clouds 4300 ft
Mostly Cloudy 6500 ft
Mostly Cloudy 9000 ft
Heat Index 72 °F
Dew Point 70 °F
Humidity 88%
Rainfall 0.00 in
Snow Depth Not available.
UV 0.0 out of 12
Pollen 9.90 out of 12
Ozone Good
PM2.5 Moderate
Flu Activity Not available.
SPECI KORH 280007Z 27006KT 10SM -TSRA SCT043 BKN065 BKN090 21/20 A2994 RMK AO2 LTG DSNT SW TSB01 P0000 T02060200

More Conditions Fewer Conditions

10-Day Weather Forecast

Almanac

Astronomy

Aug. 27, 2014 Rise Set
Actual Time 6:06 AM EDT 7:28 PM EDT
Civil Twilight 5:37 AM EDT 7:57 PM EDT
Nautical Twilight 5:02 AM EDT 8:32 PM EDT
Astronomical Twilight 4:25 AM EDT 9:09 PM EDT
Moon 8:02 AM EDT (8/27) 8:16 PM EDT (8/27)
Length of Visible Light 14h 20m
Length of Day
13h 21m
Tomorrow will be 2m 41s shorter.
Waxing Crescent, 5% of the Moon is Illuminated
Today
Waxing Crescent
Sep 2
First Quarter
Sep 8
Full
Sep 15
Last Quarter
Sep 24
New

Today's Extremes

State Highs State Lows

Community

WunderPhotos

Upload Photos

1,747,836 photos uploaded!

Nearby

Air Quality

  Air Quality AQ Index Pollutant
Yesterday Good
PM2.5
Yesterday Good
OZONE
Current Moderate
PM2.5
Current Good
OZONE
Wednesday Moderate
PM2.5
Thursday Good
PM2.5
Thursday Good
OZONE

Snow Depth

Station Depth Elevation
No new snow has been reported.

Earthquake Activity

City Distance Mag. Time & Date
No recent earthquake activity has been reported nearby.
Minimum magnitude displayed is 2.5.

Coastal Water Temperatures

Place Temperature
Newport, RI 70.0 °F
Quonset Point, RI 73.9 °F
Conimicut Light, RI 73.9 °F

Nearby Weather Stations